sensor_id;sensor_type;location;lat;lon;timestamp;pressure;altitude;pressure_sealevel;temperature;humidity
46347;BME280;32057;47.830;19.046;2023-01-19T00:00:59;98685.22;;;3.75;100.00
46347;BME280;32057;47.830;19.046;2023-01-19T00:03:24;98673.19;;;3.72;100.00
46347;BME280;32057;47.830;19.046;2023-01-19T00:05:50;98672.31;;;3.72;100.00
46347;BME280;32057;47.830;19.046;2023-01-19T00:08:16;98665.38;;;3.69;100.00
46347;BME280;32057;47.830;19.046;2023-01-19T00:10:43;98662.59;;;3.58;100.00
46347;BME280;32057;47.830;19.046;2023-01-19T00:13:09;98672.81;;;3.55;100.00
46347;BME280;32057;47.830;19.046;2023-01-19T00:15:34;98665.22;;;3.60;100.00
46347;BME280;32057;47.830;19.046;2023-01-19T00:17:59;98649.78;;;3.60;100.00
46347;BME280;32057;47.830;19.046;2023-01-19T00:20:24;98653.13;;;3.56;100.00
46347;BME280;32057;47.830;19.046;2023-01-19T00:22:50;98652.34;;;3.60;100.00
46347;BME280;32057;47.830;19.046;2023-01-19T00:25:16;98658.44;;;3.64;100.00
46347;BME280;32057;47.830;19.046;2023-01-19T00:27:41;98658.19;;;3.53;100.00
46347;BME280;32057;47.830;19.046;2023-01-19T00:30:13;98663.44;;;3.57;100.00
46347;BME280;32057;47.830;19.046;2023-01-19T00:32:39;98670.34;;;3.60;100.00
46347;BME280;32057;47.830;19.046;2023-01-19T00:35:04;98675.63;;;3.66;100.00
46347;BME280;32057;47.830;19.046;2023-01-19T00:37:29;98668.47;;;3.53;100.00
46347;BME280;32057;47.830;19.046;2023-01-19T00:39:55;98666.88;;;3.58;100.00
46347;BME280;32057;47.830;19.046;2023-01-19T00:42:20;98663.53;;;3.62;100.00
46347;BME280;32057;47.830;19.046;2023-01-19T00:45:04;98659.00;;;3.50;100.00
46347;BME280;32057;47.830;19.046;2023-01-19T00:47:30;98665.00;;;3.51;100.00
46347;BME280;32057;47.830;19.046;2023-01-19T00:49:56;98667.63;;;3.52;100.00
46347;BME280;32057;47.830;19.046;2023-01-19T00:52:21;98670.22;;;3.54;100.00
46347;BME280;32057;47.830;19.046;2023-01-19T00:54:46;98669.31;;;3.53;100.00
46347;BME280;32057;47.830;19.046;2023-01-19T00:57:12;98659.19;;;3.59;100.00
46347;BME280;32057;47.830;19.046;2023-01-19T00:59:37;98665.13;;;3.57;100.00
46347;BME280;32057;47.830;19.046;2023-01-19T01:02:02;98672.97;;;3.63;100.00
46347;BME280;32057;47.830;19.046;2023-01-19T01:04:27;98667.53;;;3.49;100.00
46347;BME280;32057;47.830;19.046;2023-01-19T01:06:53;98671.03;;;3.53;100.00
46347;BME280;32057;47.830;19.046;2023-01-19T01:09:19;98673.69;;;3.56;100.00
46347;BME280;32057;47.830;19.046;2023-01-19T01:11:44;98665.13;;;3.57;100.00
46347;BME280;32057;47.830;19.046;2023-01-19T01:14:10;98663.97;;;3.43;100.00
46347;BME280;32057;47.830;19.046;2023-01-19T01:16:36;98662.38;;;3.48;100.00
46347;BME280;32057;47.830;19.046;2023-01-19T01:19:01;98668.13;;;3.37;100.00
46347;BME280;32057;47.830;19.046;2023-01-19T01:21:26;98657.53;;;3.22;100.00
46347;BME280;32057;47.830;19.046;2023-01-19T01:23:52;98660.84;;;3.18;100.00
46347;BME280;32057;47.830;19.046;2023-01-19T01:26:17;98657.31;;;3.13;100.00
46347;BME280;32057;47.830;19.046;2023-01-19T01:28:42;98649.34;;;3.02;100.00
46347;BME280;32057;47.830;19.046;2023-01-19T01:31:07;98655.25;;;2.98;100.00
46347;BME280;32057;47.830;19.046;2023-01-19T01:33:33;98651.59;;;2.88;100.00
46347;BME280;32057;47.830;19.046;2023-01-19T01:35:58;98653.25;;;2.86;100.00
46347;BME280;32057;47.830;19.046;2023-01-19T01:38:23;98653.91;;;2.77;100.00
46347;BME280;32057;47.830;19.046;2023-01-19T01:40:48;98658.72;;;2.64;100.00
46347;BME280;32057;47.830;19.046;2023-01-19T01:43:15;98656.81;;;2.56;100.00
46347;BME280;32057;47.830;19.046;2023-01-19T01:45:40;98655.91;;;2.54;100.00
46347;BME280;32057;47.830;19.046;2023-01-19T01:48:10;98650.69;;;2.51;100.00
46347;BME280;32057;47.830;19.046;2023-01-19T01:50:39;98654.31;;;2.59;100.00
46347;BME280;32057;47.830;19.046;2023-01-19T01:53:26;98651.44;;;2.47;100.00
46347;BME280;32057;47.830;19.046;2023-01-19T01:55:53;98651.22;;;2.39;100.00
46347;BME280;32057;47.830;19.046;2023-01-19T01:58:18;98662.25;;;2.34;100.00
46347;BME280;32057;47.830;19.046;2023-01-19T02:00:43;98665.88;;;2.42;100.00
46347;BME280;32057;47.830;19.046;2023-01-19T02:03:27;98665.94;;;2.45;100.00
46347;BME280;32057;47.830;19.046;2023-01-19T02:05:54;98678.00;;;2.49;100.00
46347;BME280;32057;47.830;19.046;2023-01-19T02:08:30;98676.34;;;2.50;100.00
46347;BME280;32057;47.830;19.046;2023-01-19T02:11:15;98676.03;;;2.39;100.00
46347;BME280;32057;47.830;19.046;2023-01-19T02:13:59;98693.03;;;2.34;100.00
46347;BME280;32057;47.830;19.046;2023-01-19T02:16:27;98696.69;;;2.42;100.00
46347;BME280;32057;47.830;19.046;2023-01-19T02:18:53;98706.84;;;2.39;100.00
46347;BME280;32057;47.830;19.046;2023-01-19T02:21:23;98704.88;;;2.29;100.00
46347;BME280;32057;47.830;19.046;2023-01-19T02:23:57;98705.03;;;2.35;100.00
46347;BME280;32057;47.830;19.046;2023-01-19T02:26:24;98700.75;;;2.34;100.00
46347;BME280;32057;47.830;19.046;2023-01-19T02:31:18;98665.47;;;2.27;100.00
46347;BME280;32057;47.830;19.046;2023-01-19T02:33:44;98659.22;;;2.17;100.00
46347;BME280;32057;47.830;19.046;2023-01-19T02:36:10;98666.69;;;2.09;100.00
46347;BME280;32057;47.830;19.046;2023-01-19T02:38:37;98664.28;;;2.14;100.00
46347;BME280;32057;47.830;19.046;2023-01-19T02:41:03;98666.00;;;2.15;100.00
46347;BME280;32057;47.830;19.046;2023-01-19T02:43:30;98675.34;;;2.13;100.00
46347;BME280;32057;47.830;19.046;2023-01-19T02:45:57;98693.47;;;2.19;100.00
46347;BME280;32057;47.830;19.046;2023-01-19T02:48:22;98685.56;;;2.11;100.00
46347;BME280;32057;47.830;19.046;2023-01-19T02:50:57;98672.00;;;2.15;100.00
46347;BME280;32057;47.830;19.046;2023-01-19T02:56:36;98661.22;;;1.97;100.00
46347;BME280;32057;47.830;19.046;2023-01-19T03:03:48;98664.72;;;1.99;100.00
46347;BME280;32057;47.830;19.046;2023-01-19T03:06:31;98655.13;;;1.92;100.00
46347;BME280;32057;47.830;19.046;2023-01-19T03:09:20;98667.03;;;1.90;100.00
46347;BME280;32057;47.830;19.046;2023-01-19T03:11:49;98680.63;;;1.87;100.00
46347;BME280;32057;47.830;19.046;2023-01-19T03:14:18;98688.28;;;1.86;100.00
46347;BME280;32057;47.830;19.046;2023-01-19T03:16:58;98688.28;;;1.86;100.00
46347;BME280;32057;47.830;19.046;2023-01-19T03:19:26;98687.72;;;1.96;100.00
46347;BME280;32057;47.830;19.046;2023-01-19T03:22:02;98691.94;;;1.94;100.00
46347;BME280;32057;47.830;19.046;2023-01-19T03:24:29;98690.03;;;1.87;100.00
46347;BME280;32057;47.830;19.046;2023-01-19T03:27:01;98707.84;;;1.82;100.00
46347;BME280;32057;47.830;19.046;2023-01-19T03:29:29;98717.22;;;1.82;100.00
46347;BME280;32057;47.830;19.046;2023-01-19T03:31:56;98730.03;;;1.80;100.00
46347;BME280;32057;47.830;19.046;2023-01-19T03:34:23;98734.41;;;1.84;100.00
46347;BME280;32057;47.830;19.046;2023-01-19T03:36:50;98734.53;;;1.89;100.00
46347;BME280;32057;47.830;19.046;2023-01-19T03:39:18;98725.75;;;1.81;100.00
46347;BME280;32057;47.830;19.046;2023-01-19T03:41:46;98694.97;;;1.81;100.00
46347;BME280;32057;47.830;19.046;2023-01-19T03:44:12;98674.53;;;1.84;100.00
46347;BME280;32057;47.830;19.046;2023-01-19T03:46:38;98662.38;;;1.76;100.00
46347;BME280;32057;47.830;19.046;2023-01-19T03:49:03;98647.06;;;1.79;100.00
46347;BME280;32057;47.830;19.046;2023-01-19T03:51:29;98629.78;;;1.72;100.00
46347;BME280;32057;47.830;19.046;2023-01-19T03:53:54;98617.72;;;1.68;100.00
46347;BME280;32057;47.830;19.046;2023-01-19T03:56:21;98614.31;;;1.69;100.00
46347;BME280;32057;47.830;19.046;2023-01-19T03:58:46;98614.31;;;1.69;100.00
46347;BME280;32057;47.830;19.046;2023-01-19T04:01:12;98620.91;;;1.61;100.00
46347;BME280;32057;47.830;19.046;2023-01-19T04:03:39;98640.84;;;1.70;100.00
46347;BME280;32057;47.830;19.046;2023-01-19T04:06:04;98659.88;;;1.79;100.00
46347;BME280;32057;47.830;19.046;2023-01-19T04:08:30;98657.44;;;1.83;100.00
46347;BME280;32057;47.830;19.046;2023-01-19T04:10:56;98665.94;;;1.82;100.00
46347;BME280;32057;47.830;19.046;2023-01-19T04:13:21;98673.72;;;1.85;100.00
46347;BME280;32057;47.830;19.046;2023-01-19T04:15:47;98676.38;;;1.88;100.00
46347;BME280;32057;47.830;19.046;2023-01-19T04:18:12;98669.41;;;1.84;100.00
46347;BME280;32057;47.830;19.046;2023-01-19T04:20:37;98651.78;;;1.94;100.00
46347;BME280;32057;47.830;19.046;2023-01-19T04:23:03;98639.06;;;1.99;100.00
46347;BME280;32057;47.830;19.046;2023-01-19T04:25:29;98646.16;;;2.09;100.00
46347;BME280;32057;47.830;19.046;2023-01-19T04:27:54;98663.47;;;2.16;100.00
46347;BME280;32057;47.830;19.046;2023-01-19T04:30:21;98662.78;;;2.24;100.00
46347;BME280;32057;47.830;19.046;2023-01-19T04:32:47;98664.59;;;2.26;100.00
46347;BME280;32057;47.830;19.046;2023-01-19T04:35:12;98660.31;;;2.27;100.00
46347;BME280;32057;47.830;19.046;2023-01-19T04:37:37;98653.28;;;2.19;100.00
46347;BME280;32057;47.830;19.046;2023-01-19T04:40:03;98648.34;;;2.26;100.00
46347;BME280;32057;47.830;19.046;2023-01-19T04:42:28;98651.66;;;2.23;100.00
46347;BME280;32057;47.830;19.046;2023-01-19T04:44:53;98648.94;;;2.17;100.00
46347;BME280;32057;47.830;19.046;2023-01-19T04:47:19;98652.47;;;2.21;100.00
46347;BME280;32057;47.830;19.046;2023-01-19T04:49:44;98651.63;;;2.22;100.00
46347;BME280;32057;47.830;19.046;2023-01-19T04:52:09;98644.94;;;2.27;100.00
46347;BME280;32057;47.830;19.046;2023-01-19T04:54:34;98639.13;;;2.34;100.00
46347;BME280;32057;47.830;19.046;2023-01-19T04:57:00;98631.34;;;2.31;100.00
46347;BME280;32057;47.830;19.046;2023-01-19T04:59:25;98616.19;;;2.40;100.00
46347;BME280;32057;47.830;19.046;2023-01-19T05:01:50;98608.59;;;2.45;100.00
46347;BME280;32057;47.830;19.046;2023-01-19T05:04:15;98610.31;;;2.44;100.00
46347;BME280;32057;47.830;19.046;2023-01-19T05:06:41;98624.94;;;2.48;100.00
46347;BME280;32057;47.830;19.046;2023-01-19T05:09:06;98626.75;;;2.52;100.00
46347;BME280;32057;47.830;19.046;2023-01-19T05:11:33;98637.75;;;2.47;100.00
46347;BME280;32057;47.830;19.046;2023-01-19T05:13:58;98654.69;;;2.40;100.00
46347;BME280;32057;47.830;19.046;2023-01-19T05:16:24;98659.72;;;2.37;100.00
46347;BME280;32057;47.830;19.046;2023-01-19T05:18:49;98673.44;;;2.37;100.00
46347;BME280;32057;47.830;19.046;2023-01-19T05:21:14;98678.56;;;2.37;100.00
46347;BME280;32057;47.830;19.046;2023-01-19T05:23:39;98668.41;;;2.09;100.00
46347;BME280;32057;47.830;19.046;2023-01-19T05:26:05;98667.41;;;2.04;100.00
46347;BME280;32057;47.830;19.046;2023-01-19T05:28:31;98673.91;;;1.91;100.00
46347;BME280;32057;47.830;19.046;2023-01-19T05:30:56;98678.00;;;1.86;100.00
46347;BME280;32057;47.830;19.046;2023-01-19T05:33:21;98676.19;;;1.82;100.00
46347;BME280;32057;47.830;19.046;2023-01-19T05:35:50;98682.09;;;1.79;100.00
46347;BME280;32057;47.830;19.046;2023-01-19T05:38:16;98688.19;;;1.83;100.00
46347;BME280;32057;47.830;19.046;2023-01-19T05:40:41;98689.34;;;1.92;100.00
46347;BME280;32057;47.830;19.046;2023-01-19T05:43:07;98688.00;;;2.07;100.00
46347;BME280;32057;47.830;19.046;2023-01-19T05:45:32;98704.97;;;2.02;100.00
46347;BME280;32057;47.830;19.046;2023-01-19T05:47:58;98704.03;;;1.98;100.00
46347;BME280;32057;47.830;19.046;2023-01-19T05:50:23;98692.94;;;1.99;100.00
46347;BME280;32057;47.830;19.046;2023-01-19T05:52:49;98697.16;;;1.97;100.00
46347;BME280;32057;47.830;19.046;2023-01-19T05:55:17;98696.34;;;1.99;100.00
46347;BME280;32057;47.830;19.046;2023-01-19T05:57:42;98699.66;;;1.95;100.00
46347;BME280;32057;47.830;19.046;2023-01-19T06:00:08;98709.06;;;1.95;100.00
46347;BME280;32057;47.830;19.046;2023-01-19T06:02:33;98697.09;;;1.95;100.00
46347;BME280;32057;47.830;19.046;2023-01-19T06:04:58;98695.31;;;1.93;100.00
46347;BME280;32057;47.830;19.046;2023-01-19T06:07:24;98687.16;;;2.06;100.00
46347;BME280;32057;47.830;19.046;2023-01-19T06:09:49;98681.19;;;2.07;100.00
46347;BME280;32057;47.830;19.046;2023-01-19T06:12:15;98670.00;;;2.05;100.00
46347;BME280;32057;47.830;19.046;2023-01-19T06:14:40;98656.69;;;2.18;100.00
46347;BME280;32057;47.830;19.046;2023-01-19T06:17:05;98642.13;;;2.51;100.00
46347;BME280;32057;47.830;19.046;2023-01-19T06:19:32;98636.41;;;2.28;100.00
46347;BME280;32057;47.830;19.046;2023-01-19T06:21:57;98648.66;;;2.38;100.00
46347;BME280;32057;47.830;19.046;2023-01-19T06:24:22;98647.06;;;2.43;100.00
46347;BME280;32057;47.830;19.046;2023-01-19T06:26:49;98640.41;;;2.51;100.00
46347;BME280;32057;47.830;19.046;2023-01-19T06:29:14;98642.97;;;2.51;100.00
46347;BME280;32057;47.830;19.046;2023-01-19T06:31:40;98648.72;;;2.41;100.00
46347;BME280;32057;47.830;19.046;2023-01-19T06:34:06;98642.63;;;2.37;100.00
46347;BME280;32057;47.830;19.046;2023-01-19T06:36:31;98643.59;;;2.41;100.00
46347;BME280;32057;47.830;19.046;2023-01-19T06:38:57;98646.84;;;2.35;100.00
46347;BME280;32057;47.830;19.046;2023-01-19T06:41:22;98635.22;;;2.48;100.00
46347;BME280;32057;47.830;19.046;2023-01-19T06:43:48;98623.13;;;2.44;100.00
46347;BME280;32057;47.830;19.046;2023-01-19T06:46:13;98615.00;;;2.27;100.00
46347;BME280;32057;47.830;19.046;2023-01-19T06:48:38;98620.06;;;2.24;100.00
46347;BME280;32057;47.830;19.046;2023-01-19T06:51:04;98637.28;;;2.28;100.00
46347;BME280;32057;47.830;19.046;2023-01-19T06:53:30;98651.97;;;2.34;100.00
46347;BME280;32057;47.830;19.046;2023-01-19T06:55:59;98664.22;;;2.44;100.00
46347;BME280;32057;47.830;19.046;2023-01-19T06:58:25;98668.69;;;2.53;100.00
46347;BME280;32057;47.830;19.046;2023-01-19T07:00:51;98670.41;;;2.52;100.00
46347;BME280;32057;47.830;19.046;2023-01-19T07:03:17;98683.31;;;2.55;100.00
46347;BME280;32057;47.830;19.046;2023-01-19T07:05:43;98675.59;;;2.54;100.00
46347;BME280;32057;47.830;19.046;2023-01-19T07:08:08;98690.84;;;2.49;100.00
46347;BME280;32057;47.830;19.046;2023-01-19T07:10:34;98675.09;;;2.35;100.00
46347;BME280;32057;47.830;19.046;2023-01-19T07:13:00;98681.03;;;2.33;100.00
46347;BME280;32057;47.830;19.046;2023-01-19T07:15:25;98674.38;;;2.41;100.00
46347;BME280;32057;47.830;19.046;2023-01-19T07:17:50;98664.75;;;2.32;100.00
46347;BME280;32057;47.830;19.046;2023-01-19T07:20:16;98665.72;;;2.36;100.00
46347;BME280;32057;47.830;19.046;2023-01-19T07:22:43;98675.22;;;2.40;100.00
46347;BME280;32057;47.830;19.046;2023-01-19T07:25:10;98661.84;;;2.53;100.00
46347;BME280;32057;47.830;19.046;2023-01-19T07:27:35;98655.75;;;2.48;100.00
46347;BME280;32057;47.830;19.046;2023-01-19T07:30:01;98657.31;;;2.43;100.00
46347;BME280;32057;47.830;19.046;2023-01-19T07:32:27;98661.72;;;2.47;100.00
46347;BME280;32057;47.830;19.046;2023-01-19T07:34:52;98669.56;;;2.53;100.00
46347;BME280;32057;47.830;19.046;2023-01-19T07:37:17;98681.84;;;2.64;100.00
46347;BME280;32057;47.830;19.046;2023-01-19T07:39:43;98681.06;;;2.68;100.00
46347;BME280;32057;47.830;19.046;2023-01-19T07:42:08;98692.97;;;2.64;100.00
46347;BME280;32057;47.830;19.046;2023-01-19T07:44:33;98696.34;;;2.63;100.00
46347;BME280;32057;47.830;19.046;2023-01-19T07:46:58;98678.31;;;2.62;100.00
46347;BME280;32057;47.830;19.046;2023-01-19T07:49:24;98682.50;;;2.56;100.00
46347;BME280;32057;47.830;19.046;2023-01-19T07:51:49;98678.97;;;2.53;100.00
46347;BME280;32057;47.830;19.046;2023-01-19T07:54:14;98681.44;;;2.48;100.00
46347;BME280;32057;47.830;19.046;2023-01-19T07:56:40;98680.59;;;2.49;100.00
46347;BME280;32057;47.830;19.046;2023-01-19T07:59:05;98678.16;;;2.55;100.00
46347;BME280;32057;47.830;19.046;2023-01-19T08:01:33;98689.44;;;2.61;100.00
46347;BME280;32057;47.830;19.046;2023-01-19T08:03:59;98681.66;;;2.57;100.00
46347;BME280;32057;47.830;19.046;2023-01-19T08:06:26;98693.72;;;2.62;100.00
46347;BME280;32057;47.830;19.046;2023-01-19T08:08:53;98693.00;;;2.66;100.00
46347;BME280;32057;47.830;19.046;2023-01-19T08:11:19;98695.56;;;2.66;100.00
46347;BME280;32057;47.830;19.046;2023-01-19T08:13:44;98693.81;;;2.65;100.00
46347;BME280;32057;47.830;19.046;2023-01-19T08:16:09;98686.97;;;2.65;100.00
46347;BME280;32057;47.830;19.046;2023-01-19T08:18:35;98680.16;;;2.66;100.00
46347;BME280;32057;47.830;19.046;2023-01-19T08:21:00;98685.31;;;2.67;100.00
46347;BME280;32057;47.830;19.046;2023-01-19T08:23:25;98686.22;;;2.68;100.00
46347;BME280;32057;47.830;19.046;2023-01-19T08:25:52;98694.06;;;2.74;100.00
46347;BME280;32057;47.830;19.046;2023-01-19T08:28:17;98692.56;;;2.82;100.00
46347;BME280;32057;47.830;19.046;2023-01-19T08:30:42;98683.94;;;2.80;100.00
46347;BME280;32057;47.830;19.046;2023-01-19T08:33:09;98691.66;;;2.80;100.00
46347;BME280;32057;47.830;19.046;2023-01-19T08:35:35;98681.47;;;2.85;100.00
46347;BME280;32057;47.830;19.046;2023-01-19T08:38:02;98681.56;;;2.88;100.00
46347;BME280;32057;47.830;19.046;2023-01-19T08:40:28;98677.19;;;2.85;100.00
46347;BME280;32057;47.830;19.046;2023-01-19T08:43:15;98669.69;;;2.93;100.00
46347;BME280;32057;47.830;19.046;2023-01-19T08:45:40;98674.81;;;2.93;100.00
46347;BME280;32057;47.830;19.046;2023-01-19T08:48:06;98668.81;;;2.92;100.00
46347;BME280;32057;47.830;19.046;2023-01-19T08:50:32;98666.34;;;2.97;100.00
46347;BME280;32057;47.830;19.046;2023-01-19T08:52:58;98665.63;;;3.03;100.00
46347;BME280;32057;47.830;19.046;2023-01-19T08:55:24;98671.72;;;3.06;100.00
46347;BME280;32057;47.830;19.046;2023-01-19T08:57:50;98679.47;;;3.08;100.00
46347;BME280;32057;47.830;19.046;2023-01-19T09:00:17;98686.34;;;3.09;100.00
46347;BME280;32057;47.830;19.046;2023-01-19T09:02:42;98686.56;;;3.18;100.00
46347;BME280;32057;47.830;19.046;2023-01-19T09:05:07;98692.59;;;3.20;100.00
46347;BME280;32057;47.830;19.046;2023-01-19T09:07:32;98691.69;;;3.18;100.00
46347;BME280;32057;47.830;19.046;2023-01-19T09:09:58;98692.47;;;3.14;100.00
46347;BME280;32057;47.830;19.046;2023-01-19T09:12:23;98694.13;;;3.13;100.00
46347;BME280;32057;47.830;19.046;2023-01-19T09:14:48;98688.94;;;3.10;100.00
46347;BME280;32057;47.830;19.046;2023-01-19T09:17:13;98685.50;;;3.10;100.00
46347;BME280;32057;47.830;19.046;2023-01-19T09:19:39;98682.19;;;3.14;100.00
46347;BME280;32057;47.830;19.046;2023-01-19T09:22:04;98688.41;;;3.25;100.00
46347;BME280;32057;47.830;19.046;2023-01-19T09:24:30;98686.00;;;3.31;100.00
46347;BME280;32057;47.830;19.046;2023-01-19T09:26:55;98682.63;;;3.34;100.00
46347;BME280;32057;47.830;19.046;2023-01-19T09:29:20;98678.34;;;3.34;100.00
46347;BME280;32057;47.830;19.046;2023-01-19T09:31:46;98675.91;;;3.41;100.00
46347;BME280;32057;47.830;19.046;2023-01-19T09:34:12;98677.63;;;3.40;100.00
46347;BME280;32057;47.830;19.046;2023-01-19T09:36:38;98690.31;;;3.32;100.00
46347;BME280;32057;47.830;19.046;2023-01-19T09:39:04;98688.50;;;3.28;100.00
46347;BME280;32057;47.830;19.046;2023-01-19T09:41:29;98685.03;;;3.26;100.00
46347;BME280;32057;47.830;19.046;2023-01-19T09:43:58;98688.41;;;3.25;100.00
46347;BME280;32057;47.830;19.046;2023-01-19T09:46:26;98684.03;;;3.19;100.00
46347;BME280;32057;47.830;19.046;2023-01-19T09:48:54;98678.91;;;3.21;100.00
46347;BME280;32057;47.830;19.046;2023-01-19T09:51:27;98677.13;;;3.18;100.00
46347;BME280;32057;47.830;19.046;2023-01-19T09:53:59;98682.38;;;3.22;100.00
46347;BME280;32057;47.830;19.046;2023-01-19T09:56:27;98682.47;;;3.26;100.00
46347;BME280;32057;47.830;19.046;2023-01-19T09:58:53;98674.81;;;3.29;100.00
46347;BME280;32057;47.830;19.046;2023-01-19T10:04:41;98670.38;;;3.22;100.00
46347;BME280;32057;47.830;19.046;2023-01-19T10:06:41;98671.25;;;3.23;100.00
46347;BME280;32057;47.830;19.046;2023-01-19T10:09:12;98665.19;;;3.21;100.00
46347;BME280;32057;47.830;19.046;2023-01-19T10:11:46;98659.19;;;3.20;100.00
46347;BME280;32057;47.830;19.046;2023-01-19T10:14:19;98660.09;;;3.22;100.00
46347;BME280;32057;47.830;19.046;2023-01-19T10:16:50;98663.53;;;3.23;100.00
46347;BME280;32057;47.830;19.046;2023-01-19T10:19:34;98666.19;;;3.27;100.00
46347;BME280;32057;47.830;19.046;2023-01-19T10:22:23;98669.66;;;3.29;100.00
46347;BME280;32057;47.830;19.046;2023-01-19T10:24:47;98671.28;;;3.24;100.00
46347;BME280;32057;47.830;19.046;2023-01-19T10:27:17;98670.44;;;3.25;100.00
46347;BME280;32057;47.830;19.046;2023-01-19T10:29:42;98675.66;;;3.28;100.00
46347;BME280;32057;47.830;19.046;2023-01-19T10:32:10;98678.34;;;3.34;100.00
46347;BME280;32057;47.830;19.046;2023-01-19T10:34:36;98680.84;;;3.31;100.00
46347;BME280;32057;47.830;19.046;2023-01-19T10:39:36;98683.38;;;3.28;100.00
46347;BME280;32057;47.830;19.046;2023-01-19T10:42:02;98687.78;;;3.34;100.00
46347;BME280;32057;47.830;19.046;2023-01-19T10:44:28;98679.97;;;3.31;100.00
46347;BME280;32057;47.830;19.046;2023-01-19T10:46:57;98683.41;;;3.31;100.00
46347;BME280;32057;47.830;19.046;2023-01-19T10:51:49;98681.84;;;3.36;100.00
46347;BME280;32057;47.830;19.046;2023-01-19T10:54:14;98682.72;;;3.38;100.00
46347;BME280;32057;47.830;19.046;2023-01-19T10:56:40;98680.38;;;3.48;100.00
46347;BME280;32057;47.830;19.046;2023-01-19T10:59:25;98680.50;;;3.54;100.00
46347;BME280;32057;47.830;19.046;2023-01-19T11:04:35;98690.94;;;3.60;100.00
46347;BME280;32057;47.830;19.046;2023-01-19T11:09:38;98694.28;;;3.56;100.00
46347;BME280;32057;47.830;19.046;2023-01-19T11:12:03;98690.78;;;3.54;100.00
46347;BME280;32057;47.830;19.046;2023-01-19T11:14:29;98693.38;;;3.54;100.00
46347;BME280;32057;47.830;19.046;2023-01-19T11:16:55;98693.25;;;3.49;100.00
46347;BME280;32057;47.830;19.046;2023-01-19T11:19:29;98693.09;;;3.42;100.00
46347;BME280;32057;47.830;19.046;2023-01-19T11:22:37;98698.19;;;3.40;100.00
46347;BME280;32057;47.830;19.046;2023-01-19T11:24:45;98700.97;;;3.49;100.00
46347;BME280;32057;47.830;19.046;2023-01-19T11:27:11;98701.72;;;3.45;100.00
46347;BME280;32057;47.830;19.046;2023-01-19T11:29:44;98706.00;;;3.45;100.00
46347;BME280;32057;47.830;19.046;2023-01-19T11:32:13;98707.91;;;3.52;100.00
46347;BME280;32057;47.830;19.046;2023-01-19T11:34:43;98711.31;;;3.52;100.00
46347;BME280;32057;47.830;19.046;2023-01-19T11:39:46;98705.28;;;3.50;100.00
46347;BME280;32057;47.830;19.046;2023-01-19T11:42:12;98708.84;;;3.57;100.00
46347;BME280;32057;47.830;19.046;2023-01-19T11:44:42;98704.72;;;3.65;100.00
46347;BME280;32057;47.830;19.046;2023-01-19T11:47:15;98709.06;;;3.66;100.00
46347;BME280;32057;47.830;19.046;2023-01-19T11:57:50;98718.78;;;3.79;100.00
46347;BME280;32057;47.830;19.046;2023-01-19T12:00:27;98710.31;;;3.84;100.00
46347;BME280;32057;47.830;19.046;2023-01-19T12:03:21;98717.25;;;3.88;100.00
46347;BME280;32057;47.830;19.046;2023-01-19T12:05:46;98724.19;;;3.92;100.00
46347;BME280;32057;47.830;19.046;2023-01-19T12:08:19;98725.06;;;3.92;100.00
46347;BME280;32057;47.830;19.046;2023-01-19T12:10:46;98726.78;;;3.93;100.00
46347;BME280;32057;47.830;19.046;2023-01-19T12:13:22;98724.22;;;3.95;100.00
46347;BME280;32057;47.830;19.046;2023-01-19T12:15:49;98722.63;;;4.00;100.00
46347;BME280;32057;47.830;19.046;2023-01-19T12:18:18;98733.06;;;4.06;100.00
46347;BME280;32057;47.830;19.046;2023-01-19T12:20:49;98731.38;;;4.08;100.00
46347;BME280;32057;47.830;19.046;2023-01-19T12:23:27;98736.53;;;4.08;100.00
46347;BME280;32057;47.830;19.046;2023-01-19T12:28:41;98735.69;;;4.09;100.00
46347;BME280;32057;47.830;19.046;2023-01-19T12:31:07;98742.47;;;4.04;100.00
46347;BME280;32057;47.830;19.046;2023-01-19T12:33:34;98749.41;;;4.08;100.00
46347;BME280;32057;47.830;19.046;2023-01-19T12:38:46;98756.31;;;4.11;100.00
46347;BME280;32057;47.830;19.046;2023-01-19T12:41:16;98751.91;;;4.05;100.00
46347;BME280;32057;47.830;19.046;2023-01-19T12:43:42;98759.75;;;4.10;100.00
46347;BME280;32057;47.830;19.046;2023-01-19T12:46:18;98759.63;;;4.05;100.00
46347;BME280;32057;47.830;19.046;2023-01-19T12:48:43;98761.38;;;4.06;100.00
46347;BME280;32057;47.830;19.046;2023-01-19T12:51:08;98765.66;;;4.07;100.00
46347;BME280;32057;47.830;19.046;2023-01-19T12:53:49;98768.13;;;4.01;100.00
46347;BME280;32057;47.830;19.046;2023-01-19T12:56:15;98769.94;;;4.07;100.00
46347;BME280;32057;47.830;19.046;2023-01-19T12:58:45;98773.38;;;4.07;100.00
46347;BME280;32057;47.830;19.046;2023-01-19T13:01:15;98770.84;;;4.09;100.00
46347;BME280;32057;47.830;19.046;2023-01-19T13:03:44;98775.22;;;4.13;100.00
46347;BME280;32057;47.830;19.046;2023-01-19T13:06:10;98781.09;;;4.07;100.00
46347;BME280;32057;47.830;19.046;2023-01-19T13:11:19;98785.34;;;4.04;100.00
46347;BME280;32057;47.830;19.046;2023-01-19T13:21:12;98797.31;;;4.03;100.00
46347;BME280;32057;47.830;19.046;2023-01-19T13:26:15;98803.38;;;4.05;100.00
46347;BME280;32057;47.830;19.046;2023-01-19T13:28:42;98809.41;;;4.07;100.00
46347;BME280;32057;47.830;19.046;2023-01-19T13:31:08;98809.38;;;4.04;100.00
46347;BME280;32057;47.830;19.046;2023-01-19T13:36:18;98830.19;;;4.13;100.00
46347;BME280;32057;47.830;19.046;2023-01-19T13:38:45;98836.16;;;4.12;100.00
46347;BME280;32057;47.830;19.046;2023-01-19T13:41:13;98837.81;;;4.10;100.00
46347;BME280;32057;47.830;19.046;2023-01-19T13:43:39;98844.78;;;4.14;100.00
46347;BME280;32057;47.830;19.046;2023-01-19T13:46:05;98846.44;;;4.12;100.00